createdAt,value
2022-12-08T00:02:09.610Z,95285.25
2022-12-08T00:04:59.647Z,95285.03
2022-12-08T00:07:45.100Z,95298.31
2022-12-08T00:10:40.248Z,95299.06
2022-12-08T00:13:01.634Z,95295.56
2022-12-08T00:15:31.269Z,95290.47
2022-12-08T00:17:59.493Z,95289.69
2022-12-08T00:20:27.816Z,95280.13
2022-12-08T00:22:56.067Z,95290.69
2022-12-08T00:25:24.276Z,95270.34
2022-12-08T00:27:52.504Z,95276.88
2022-12-08T00:30:20.843Z,95291.53
2022-12-08T00:32:50.449Z,95294.44
2022-12-08T00:35:18.706Z,95294.66
2022-12-08T00:37:46.930Z,95293.63
2022-12-08T00:40:15.428Z,95299.69
2022-12-08T00:42:43.719Z,95291.72
2022-12-08T00:45:13.002Z,95304.72
2022-12-08T00:47:41.357Z,95307.59
2022-12-08T00:50:11.750Z,95304.47
2022-12-08T00:52:40.046Z,95307.09
2022-12-08T00:55:08.975Z,95300.72
2022-12-08T00:57:37.247Z,95304.97
2022-12-08T01:00:06.900Z,95305.50
2022-12-08T01:02:35.401Z,95311.63
2022-12-08T01:05:03.604Z,95313.56
2022-12-08T01:07:33.506Z,95313.50
2022-12-08T01:10:01.918Z,95314.78
2022-12-08T01:12:31.328Z,95319.28
2022-12-08T01:15:03.054Z,95307.59
2022-12-08T01:17:31.454Z,95314.00
2022-12-08T01:19:59.856Z,95308.84
2022-12-08T01:22:28.104Z,95310.63
2022-12-08T01:24:57.774Z,95299.47
2022-12-08T01:27:26.033Z,95304.91
2022-12-08T01:29:54.351Z,95300.69
2022-12-08T01:32:22.554Z,95310.34
2022-12-08T01:34:50.902Z,95304.25
2022-12-08T01:37:19.150Z,95312.25
2022-12-08T01:39:47.372Z,95302.44
2022-12-08T01:42:23.455Z,95311.66
2022-12-08T01:44:57.609Z,95315.56
2022-12-08T01:47:30.700Z,95307.31
2022-12-08T01:49:59.365Z,95313.16
2022-12-08T01:52:33.945Z,95312.72
2022-12-08T01:55:06.950Z,95316.44
2022-12-08T01:57:42.853Z,95320.47
2022-12-08T02:00:13.625Z,95322.09
2022-12-08T02:02:52.343Z,95320.19
2022-12-08T02:05:29.017Z,95270.13
2022-12-08T02:07:59.118Z,95310.84
2022-12-08T02:10:30.784Z,95295.22
2022-12-08T02:13:01.808Z,95308.91
2022-12-08T02:15:38.802Z,95309.72
2022-12-08T02:18:20.864Z,95318.25
2022-12-08T02:20:59.461Z,95306.84
2022-12-08T02:23:38.551Z,95303.91
2022-12-08T02:26:36.478Z,95307.88
2022-12-08T02:29:46.606Z,95296.00
2022-12-08T02:32:44.351Z,95304.72
2022-12-08T02:35:17.721Z,95304.94
2022-12-08T02:37:51.730Z,95300.78
2022-12-08T02:40:26.016Z,95299.78
2022-12-08T02:42:59.141Z,95298.72
2022-12-08T02:45:33.146Z,95299.19
2022-12-08T02:48:01.891Z,95298.88
2022-12-08T02:50:31.632Z,95301.56
2022-12-08T02:52:59.866Z,95296.00
2022-12-08T02:55:30.329Z,95287.72
2022-12-08T02:58:19.916Z,95305.16
2022-12-08T03:01:01.801Z,95303.34
2022-12-08T03:03:37.114Z,95298.06
2022-12-08T03:06:20.993Z,95296.94
2022-12-08T03:08:56.905Z,95287.81
2022-12-08T03:11:31.829Z,95297.19
2022-12-08T03:14:03.057Z,95295.06
2022-12-08T03:16:34.045Z,95306.66
2022-12-08T03:19:08.799Z,95288.59
2022-12-08T03:21:40.330Z,95302.34
2022-12-08T03:24:11.284Z,95312.63
2022-12-08T03:26:45.074Z,95317.41
2022-12-08T03:29:14.259Z,95319.75
2022-12-08T03:31:50.675Z,95319.75
2022-12-08T03:34:19.954Z,95325.84
2022-12-08T03:36:49.586Z,95311.78
2022-12-08T03:39:17.842Z,95307.81
2022-12-08T03:41:46.775Z,95313.94
2022-12-08T03:44:15.135Z,95312.88
2022-12-08T03:46:43.347Z,95312.34
2022-12-08T03:49:11.748Z,95314.97
2022-12-08T03:51:40.033Z,95307.22
2022-12-08T03:54:09.697Z,95315.41
2022-12-08T03:56:39.779Z,95321.31
2022-12-08T03:59:08.762Z,95318.97
2022-12-08T04:01:37.091Z,95316.81
2022-12-08T04:04:05.554Z,95322.09
2022-12-08T04:06:33.964Z,95319.44
2022-12-08T04:09:02.207Z,95319.91
2022-12-08T04:11:31.873Z,95314.34
2022-12-08T04:14:00.146Z,95311.78
2022-12-08T04:16:28.719Z,95318.41
2022-12-08T04:18:57.129Z,95313.09
2022-12-08T04:21:25.471Z,95319.91
2022-12-08T04:23:59.181Z,95247.16
2022-12-08T04:26:29.650Z,95308.78
2022-12-08T04:28:59.364Z,95315.06
2022-12-08T04:31:27.807Z,95325.16
2022-12-08T04:33:56.127Z,95320.69
2022-12-08T04:36:24.499Z,95315.91
2022-12-08T04:38:52.823Z,95317.53
2022-12-08T04:41:21.151Z,95315.13
2022-12-08T04:43:49.521Z,95320.22
2022-12-08T04:46:19.310Z,95315.22
2022-12-08T04:48:47.594Z,95308.28
2022-12-08T04:51:18.103Z,95296.56
2022-12-08T04:53:49.876Z,95300.22
2022-12-08T04:56:20.540Z,95293.34
2022-12-08T04:58:48.995Z,95191.28
2022-12-08T05:01:18.697Z,95299.72
2022-12-08T05:03:46.928Z,95305.53
2022-12-08T05:06:15.861Z,95229.59
2022-12-08T05:08:44.581Z,95305.53
2022-12-08T05:11:14.470Z,95311.06
2022-12-08T05:13:42.796Z,95313.19
2022-12-08T05:16:13.623Z,95317.47
2022-12-08T05:18:44.047Z,95312.66
2022-12-08T05:21:12.550Z,95317.19
2022-12-08T05:23:40.841Z,95317.72
2022-12-08T05:26:09.291Z,95313.19
2022-12-08T05:28:42.227Z,95319.84
2022-12-08T05:31:11.022Z,95320.88
2022-12-08T05:33:39.361Z,95319.31
2022-12-08T05:36:09.529Z,95324.63
2022-12-08T05:38:37.824Z,95291.59
2022-12-08T05:41:07.594Z,95328.59
2022-12-08T05:43:36.174Z,95335.78
2022-12-08T05:46:04.742Z,95329.41
2022-12-08T05:48:32.985Z,95342.69
2022-12-08T05:51:01.509Z,95349.06
2022-12-08T05:53:31.421Z,95348.53
2022-12-08T05:55:59.735Z,95353.03
2022-12-08T05:58:27.960Z,95355.38
2022-12-08T06:00:56.276Z,95360.97
2022-12-08T06:03:24.550Z,95359.69
2022-12-08T06:05:52.841Z,95363.09
2022-12-08T06:08:21.161Z,95363.34
2022-12-08T06:10:50.913Z,95363.34
2022-12-08T06:13:19.131Z,95354.31
2022-12-08T06:15:47.474Z,95361.25
2022-12-08T06:18:15.687Z,95376.41
2022-12-08T06:20:43.965Z,95369.47
2022-12-08T06:23:12.288Z,95369.44
2022-12-08T06:25:40.527Z,95370.59
2022-12-08T06:28:10.309Z,95362.34
2022-12-08T06:30:39.227Z,95365.00
2022-12-08T06:33:07.530Z,95369.97
2022-12-08T06:35:35.850Z,95362.84
2022-12-08T06:38:04.258Z,95377.94
2022-12-08T06:40:32.512Z,95371.06
2022-12-08T06:43:00.744Z,95382.72
2022-12-08T06:45:30.481Z,95366.63
2022-12-08T06:47:58.878Z,95373.28
2022-12-08T06:50:27.177Z,95379.63
2022-12-08T06:53:04.488Z,95384.38
2022-12-08T06:58:22.528Z,95337.22
2022-12-08T07:00:52.313Z,95388.09
2022-12-08T07:03:20.749Z,95388.38
2022-12-08T07:05:49.207Z,95392.88
2022-12-08T07:08:17.606Z,95389.69
2022-12-08T07:10:48.176Z,95396.56
2022-12-08T07:13:16.401Z,95397.84
2022-12-08T07:15:44.673Z,95390.97
2022-12-08T07:18:14.454Z,95400.44
2022-12-08T07:20:42.711Z,95388.31
2022-12-08T07:23:11.022Z,95393.59
2022-12-08T07:25:39.354Z,95397.34
2022-12-08T07:28:12.536Z,95405.00
2022-12-08T07:30:41.017Z,95396.25
2022-12-08T07:33:09.271Z,95407.66
2022-12-08T07:35:38.961Z,95406.09
2022-12-08T07:38:11.386Z,95413.22
2022-12-08T07:40:42.497Z,95402.38
2022-12-08T07:43:10.800Z,95394.38
2022-12-08T07:45:39.179Z,95414.50
2022-12-08T07:48:09.341Z,95425.97
2022-12-08T07:50:39.295Z,95409.03
2022-12-08T07:53:08.216Z,95430.50
2022-12-08T07:55:40.264Z,95414.00
2022-12-08T07:58:08.870Z,95417.13
2022-12-08T08:00:37.849Z,95410.81
2022-12-08T08:03:06.409Z,95429.59
2022-12-08T08:05:35.629Z,95414.44
2022-12-08T08:08:06.187Z,95419.47
2022-12-08T08:10:34.441Z,95422.06
2022-12-08T08:13:02.972Z,95415.59
2022-12-08T08:15:31.419Z,95424.56
2022-12-08T08:17:59.749Z,95428.47
2022-12-08T08:20:28.277Z,95351.16
2022-12-08T08:22:56.531Z,95423.75
2022-12-08T08:25:26.219Z,95425.03
2022-12-08T08:27:55.888Z,95413.69
2022-12-08T08:30:24.088Z,95411.00
2022-12-08T08:32:52.554Z,95402.94
2022-12-08T08:35:21.246Z,95424.44
2022-12-08T08:37:49.755Z,95425.28
2022-12-08T08:40:18.846Z,95420.91
2022-12-08T08:42:48.479Z,95420.09
2022-12-08T08:45:16.739Z,95415.38
2022-12-08T08:47:45.054Z,95410.81
2022-12-08T08:50:13.516Z,95416.31
2022-12-08T08:52:41.763Z,95414.53
2022-12-08T08:55:10.414Z,95415.59
2022-12-08T08:57:38.839Z,95408.25
2022-12-08T09:00:10.838Z,95409.72
2022-12-08T09:02:42.054Z,95404.16
2022-12-08T09:05:10.567Z,95399.28
2022-12-08T09:07:38.909Z,95392.91
2022-12-08T09:10:09.661Z,95398.00
2022-12-08T09:12:37.945Z,95392.66
2022-12-08T09:15:08.762Z,95395.69
2022-12-08T09:17:37.041Z,95392.81
2022-12-08T09:20:06.109Z,95388.59
2022-12-08T09:22:34.598Z,95396.94
2022-12-08T09:25:02.835Z,95384.16
2022-12-08T09:27:32.046Z,95378.59
2022-12-08T09:30:00.814Z,95378.53
2022-12-08T09:32:31.652Z,95381.59
2022-12-08T09:34:59.887Z,95378.94
2022-12-08T09:37:28.566Z,95385.38
2022-12-08T09:39:57.363Z,95378.09
2022-12-08T09:42:38.391Z,95375.66
2022-12-08T09:45:12.146Z,95370.78
2022-12-08T09:47:46.864Z,95372.06
2022-12-08T09:50:20.971Z,95367.22
2022-12-08T09:53:02.515Z,95372.56
2022-12-08T09:55:40.448Z,95364.72
2022-12-08T09:58:18.861Z,95362.31
2022-12-08T10:00:47.209Z,95357.25
2022-12-08T10:03:17.248Z,95354.91
2022-12-08T10:05:51.372Z,95372.72
2022-12-08T10:08:22.498Z,95360.69
2022-12-08T10:10:58.571Z,95355.94
2022-12-08T10:13:34.595Z,95351.44
2022-12-08T10:16:24.148Z,95349.81
2022-12-08T10:19:02.804Z,95340.16
2022-12-08T10:21:33.890Z,95323.72
2022-12-08T10:24:08.767Z,95340.13
2022-12-08T10:26:37.267Z,95342.06
2022-12-08T10:29:07.079Z,95343.78
2022-12-08T10:31:35.468Z,95341.81
2022-12-08T10:34:17.525Z,95344.75
2022-12-08T10:36:51.841Z,95340.03
2022-12-08T10:39:38.471Z,95291.16
2022-12-08T10:42:16.692Z,95337.53
2022-12-08T10:44:56.094Z,95332.00
2022-12-08T10:47:27.005Z,95326.59
2022-12-08T10:50:23.555Z,95313.47
2022-12-08T10:52:57.564Z,95317.28
2022-12-08T10:55:25.857Z,95313.34
2022-12-08T10:57:56.031Z,95304.75
2022-12-08T11:00:27.471Z,95305.50
2022-12-08T11:02:59.568Z,95298.47
2022-12-08T11:05:33.266Z,95312.53
2022-12-08T11:08:02.067Z,95309.00
2022-12-08T11:10:36.820Z,95306.59
2022-12-08T11:13:07.580Z,95281.84
2022-12-08T11:15:39.549Z,95257.56
2022-12-08T11:18:27.100Z,95292.84
2022-12-08T11:21:03.184Z,95291.09
2022-12-08T11:23:32.219Z,95281.31
2022-12-08T11:26:09.729Z,95278.72
2022-12-08T11:28:38.052Z,95269.41
2022-12-08T11:31:16.102Z,95286.22
2022-12-08T11:33:45.886Z,95267.66
2022-12-08T11:36:17.610Z,95258.72
2022-12-08T11:38:51.287Z,95261.44
2022-12-08T11:41:25.153Z,95260.28
2022-12-08T11:43:58.523Z,95137.97
2022-12-08T11:46:31.699Z,95253.72
2022-12-08T11:49:06.695Z,95201.16
2022-12-08T11:51:40.871Z,95256.53
2022-12-08T11:54:19.678Z,95257.34
2022-12-08T11:56:50.782Z,95251.28
2022-12-08T11:59:25.315Z,95257.13
2022-12-08T12:01:53.800Z,95251.56
2022-12-08T12:04:29.170Z,95247.28
2022-12-08T12:07:30.727Z,95227.78
2022-12-08T12:10:15.156Z,95249.56
2022-12-08T12:12:59.381Z,95244.88
2022-12-08T12:15:53.530Z,95248.13
2022-12-08T12:18:28.505Z,95251.50
2022-12-08T12:21:00.100Z,95249.78
2022-12-08T12:23:38.311Z,95216.47
2022-12-08T12:26:09.794Z,95251.50
2022-12-08T12:28:46.445Z,95246.47
2022-12-08T12:31:18.281Z,95244.94
2022-12-08T12:33:48.460Z,95245.66
2022-12-08T12:36:18.219Z,95243.88
2022-12-08T12:39:03.652Z,95242.09
2022-12-08T12:41:38.887Z,95244.44
2022-12-08T12:44:41.117Z,95244.97
2022-12-08T12:47:14.869Z,95239.56
2022-12-08T12:49:54.625Z,95242.47
2022-12-08T12:52:48.928Z,95247.34
2022-12-08T12:55:50.747Z,95247.34
2022-12-08T12:58:38.329Z,95248.91
2022-12-08T13:01:39.020Z,95250.66
2022-12-08T13:04:10.763Z,95242.44
2022-12-08T13:06:42.517Z,95228.56
2022-12-08T13:09:25.520Z,95244.38
2022-12-08T13:11:58.699Z,95236.09
2022-12-08T13:14:36.743Z,95151.16
2022-12-08T13:17:11.694Z,95250.59
2022-12-08T13:19:41.512Z,95253.59
2022-12-08T13:22:46.701Z,95250.50
2022-12-08T13:25:57.402Z,95241.00
2022-12-08T13:28:29.867Z,95237.25
2022-12-08T13:30:59.837Z,95126.13
2022-12-08T13:33:32.022Z,95227.34
2022-12-08T13:36:22.593Z,95238.50
2022-12-08T13:38:57.387Z,95235.06
2022-12-08T13:41:37.066Z,95241.66
2022-12-08T13:45:17.846Z,95235.34
2022-12-08T13:47:32.114Z,95242.41
2022-12-08T13:56:59.749Z,95259.06
2022-12-08T13:58:34.519Z,95264.53
2022-12-08T14:01:10.412Z,95261.28
2022-12-08T14:04:11.700Z,95263.38
2022-12-08T14:06:38.154Z,95233.22
2022-12-08T14:09:11.710Z,95260.81
2022-12-08T14:11:44.513Z,95261.06
2022-12-08T14:14:32.518Z,95264.69
2022-12-08T14:17:13.182Z,95256.81
2022-12-08T14:19:44.707Z,95258.69
2022-12-08T14:22:15.037Z,95261.63
2022-12-08T14:24:46.739Z,95265.25
2022-12-08T14:27:18.745Z,95258.63
2022-12-08T14:29:48.710Z,95262.16
2022-12-08T14:32:28.816Z,95256.47
2022-12-08T14:34:59.886Z,95261.34
2022-12-08T14:37:30.132Z,95243.84
2022-12-08T14:40:06.134Z,95256.50
2022-12-08T14:42:45.033Z,95263.38
2022-12-08T14:45:14.992Z,95257.91
2022-12-08T14:47:45.745Z,95258.22
2022-12-08T14:50:39.877Z,95262.28
2022-12-08T14:53:15.258Z,95210.78
2022-12-08T14:55:46.111Z,95253.22
2022-12-08T14:58:20.707Z,95187.88
2022-12-08T15:00:51.664Z,95266.06
2022-12-08T15:03:23.928Z,95266.59
2022-12-08T15:05:54.101Z,95268.59
2022-12-08T15:08:22.514Z,95273.97
2022-12-08T15:11:19.270Z,95261.56
2022-12-08T15:13:48.552Z,95270.38
2022-12-08T15:16:27.156Z,95275.34
2022-12-08T15:19:18.997Z,95281.19
2022-12-08T15:21:48.175Z,95278.47
2022-12-08T15:24:18.099Z,95275.09
2022-12-08T15:26:48.282Z,95275.59
2022-12-08T15:29:22.377Z,95279.59
2022-12-08T15:31:52.687Z,95266.63
2022-12-08T15:34:23.147Z,95276.16
2022-12-08T15:36:53.429Z,95250.81
2022-12-08T15:39:34.274Z,95254.28
2022-12-08T15:42:03.622Z,95256.91
2022-12-08T15:44:33.050Z,95266.97
2022-12-08T15:47:02.086Z,95166.88
2022-12-08T15:49:32.052Z,95258.44
2022-12-08T15:52:10.773Z,95261.63
2022-12-08T15:54:39.882Z,95255.78
2022-12-08T15:57:19.563Z,95262.41
2022-12-08T15:59:54.421Z,95265.91
2022-12-08T16:02:25.030Z,95226.75
2022-12-08T16:07:43.588Z,95255.06
2022-12-08T16:10:18.101Z,95244.56
2022-12-08T16:15:59.863Z,95254.25
2022-12-08T16:18:33.001Z,95269.63
2022-12-08T16:21:13.315Z,95278.38
2022-12-08T16:23:51.434Z,95276.25
2022-12-08T16:27:28.408Z,95278.44
2022-12-08T16:29:17.804Z,95284.22
2022-12-08T16:31:46.097Z,95301.78
2022-12-08T16:34:14.415Z,95298.09
2022-12-08T16:36:43.971Z,95304.31
2022-12-08T16:39:14.948Z,95300.50
2022-12-08T16:42:00.814Z,95307.53
2022-12-08T16:44:29.172Z,95300.88
2022-12-08T16:46:57.445Z,95317.53
2022-12-08T16:49:29.020Z,95308.81
2022-12-08T16:51:58.982Z,95315.72
2022-12-08T16:54:27.463Z,95320.44
2022-12-08T16:56:55.932Z,95311.88
2022-12-08T16:59:24.174Z,95312.34
2022-12-08T17:01:52.647Z,95311.75
2022-12-08T17:04:31.289Z,95309.34
2022-12-08T17:09:47.441Z,95323.78
2022-12-08T17:12:15.721Z,95304.84
2022-12-08T17:14:43.972Z,95323.31
2022-12-08T17:17:12.157Z,95325.41
2022-12-08T17:19:40.447Z,95320.13
2022-12-08T17:22:10.086Z,95327.84
2022-12-08T17:24:39.421Z,95332.41
2022-12-08T17:27:07.602Z,95332.38
2022-12-08T17:29:36.160Z,95328.66
2022-12-08T17:32:04.551Z,95330.53
2022-12-08T17:34:32.850Z,95335.81
2022-12-08T17:37:01.049Z,95335.81
2022-12-08T17:39:30.721Z,95334.19
2022-12-08T17:41:58.970Z,95337.72
2022-12-08T17:44:28.259Z,95338.97
2022-12-08T17:46:56.505Z,95335.75
2022-12-08T17:49:27.051Z,95342.41
2022-12-08T17:51:57.891Z,95342.13
2022-12-08T17:54:26.935Z,95335.22
2022-12-08T17:56:58.762Z,95345.41
2022-12-08T17:59:28.656Z,95344.63
2022-12-08T18:01:58.146Z,95361.53
2022-12-08T18:04:27.913Z,95346.66
2022-12-08T18:06:58.379Z,95344.53
2022-12-08T18:09:26.666Z,95338.47
2022-12-08T18:11:56.412Z,95338.44
2022-12-08T18:14:24.909Z,95341.88
2022-12-08T18:16:53.474Z,95341.28
2022-12-08T18:19:21.742Z,95344.41
2022-12-08T18:21:49.978Z,95334.28
2022-12-08T18:24:21.030Z,95334.56
2022-12-08T18:26:51.870Z,95337.50
2022-12-08T18:29:22.594Z,95330.84
2022-12-08T18:31:51.634Z,95344.50
2022-12-08T18:34:20.134Z,95341.28
2022-12-08T18:36:48.853Z,95338.31
2022-12-08T18:39:25.407Z,95347.63
2022-12-08T18:41:54.487Z,95350.56
2022-12-08T18:44:24.235Z,95340.69
2022-12-08T18:46:52.587Z,95334.59
2022-12-08T18:49:21.196Z,95341.38
2022-12-08T18:51:49.538Z,95325.75
2022-12-08T18:54:17.945Z,95336.28
2022-12-08T18:56:46.239Z,95333.09
2022-12-08T18:59:14.846Z,95339.22
2022-12-08T19:01:44.507Z,95331.53
2022-12-08T19:04:29.297Z,95333.94
2022-12-08T19:06:57.965Z,95340.81
2022-12-08T19:09:27.065Z,95337.63
2022-12-08T19:11:55.617Z,95328.66
2022-12-08T19:14:28.245Z,95341.91
2022-12-08T19:16:58.973Z,95346.91
2022-12-08T19:19:27.649Z,95328.91
2022-12-08T19:21:56.109Z,95338.47
2022-12-08T19:24:24.831Z,95350.94
2022-12-08T19:26:53.151Z,95341.66
2022-12-08T19:29:21.530Z,95349.41
2022-12-08T19:31:49.998Z,95361.34
2022-12-08T19:34:22.709Z,95352.28
2022-12-08T19:36:51.159Z,95350.13
2022-12-08T19:39:38.325Z,95355.47
2022-12-08T19:42:31.078Z,95349.38
2022-12-08T19:45:02.406Z,95343.25
2022-12-08T19:47:30.745Z,95351.50
2022-12-08T19:50:14.325Z,95344.06
2022-12-08T19:52:42.966Z,95284.50
2022-12-08T19:55:11.973Z,95346.69
2022-12-08T19:57:40.315Z,95349.56
2022-12-08T20:00:10.636Z,95337.41
2022-12-08T20:02:39.076Z,95345.94
2022-12-08T20:05:12.491Z,95349.69
2022-12-08T20:07:41.625Z,95349.16
2022-12-08T20:10:15.743Z,95363.47
2022-12-08T20:12:44.028Z,95234.78
2022-12-08T20:15:12.677Z,95368.22
2022-12-08T20:17:41.013Z,95374.06
2022-12-08T20:20:13.160Z,95356.59
2022-12-08T20:22:41.763Z,95373.81
2022-12-08T20:25:12.984Z,95354.97
2022-12-08T20:27:42.590Z,95374.56
2022-12-08T20:30:16.684Z,95377.22
2022-12-08T20:32:45.547Z,95375.34
2022-12-08T20:35:16.373Z,95374.59
2022-12-08T20:37:44.850Z,95384.13
2022-12-08T20:40:13.589Z,95382.00
2022-12-08T20:42:41.855Z,95375.94
2022-12-08T20:45:10.757Z,95362.69
2022-12-08T20:47:39.141Z,95373.50
2022-12-08T20:50:09.149Z,95374.03
2022-12-08T20:52:39.303Z,95377.22
2022-12-08T20:55:09.361Z,95363.41
2022-12-08T20:57:37.946Z,95365.50
2022-12-08T21:00:08.858Z,95361.53
2022-12-08T21:02:43.244Z,95358.13
2022-12-08T21:05:13.757Z,95355.50
2022-12-08T21:07:43.642Z,95353.94
2022-12-08T21:10:12.698Z,95335.91
2022-12-08T21:12:44.045Z,95362.91
2022-12-08T21:15:13.408Z,95363.72
2022-12-08T21:17:42.263Z,95356.00
2022-12-08T21:20:11.553Z,95362.91
2022-12-08T21:22:40.438Z,95362.38
2022-12-08T21:25:11.347Z,95373.00
2022-12-08T21:27:40.283Z,95347.06
2022-12-08T21:30:10.883Z,95378.84
2022-12-08T21:32:40.222Z,95376.69
2022-12-08T21:35:09.830Z,95381.75
2022-12-08T21:37:38.422Z,95381.19
2022-12-08T21:40:08.175Z,95393.28
2022-12-08T21:42:47.315Z,95405.53
2022-12-08T21:45:18.111Z,95389.94
2022-12-08T21:47:48.243Z,95403.13
2022-12-08T21:50:17.735Z,95360.50
2022-12-08T21:52:49.104Z,95392.88
2022-12-08T21:55:19.227Z,95398.97
2022-12-08T21:57:49.254Z,95382.81
2022-12-08T22:00:19.270Z,95385.44
2022-12-08T22:02:47.754Z,95402.44
2022-12-08T22:05:16.175Z,95387.81
2022-12-08T22:07:44.814Z,95392.06
2022-12-08T22:10:13.774Z,95391.03
2022-12-08T22:12:42.508Z,95395.00
2022-12-08T22:15:13.456Z,95393.34
2022-12-08T22:17:43.455Z,95400.00
2022-12-08T22:20:14.992Z,95401.56
2022-12-08T22:22:43.588Z,95404.50
2022-12-08T22:25:13.230Z,95400.81
2022-12-08T22:27:42.655Z,95404.53
2022-12-08T22:30:13.560Z,95403.19
2022-12-08T22:32:42.434Z,95413.03
2022-12-08T22:35:11.602Z,95409.56
2022-12-08T22:37:40.493Z,95410.38
2022-12-08T22:40:10.106Z,95406.91
2022-12-08T22:42:38.643Z,95405.31
2022-12-08T22:45:08.110Z,95405.06
2022-12-08T22:47:37.891Z,95407.16
2022-12-08T22:50:07.896Z,95400.53
2022-12-08T22:52:55.148Z,95399.78
2022-12-08T22:55:23.747Z,95379.34
2022-12-08T22:57:52.047Z,95398.16
2022-12-08T23:00:21.378Z,95385.19
2022-12-08T23:02:51.234Z,95395.53
2022-12-08T23:05:19.849Z,95401.88
2022-12-08T23:07:48.522Z,95399.78
2022-12-08T23:10:16.959Z,95397.88
2022-12-08T23:12:45.219Z,95398.66
2022-12-08T23:15:13.943Z,95408.44
2022-12-08T23:17:42.522Z,95397.09
2022-12-08T23:20:13.537Z,95401.63
2022-12-08T23:22:41.807Z,95392.59
2022-12-08T23:25:10.843Z,95405.31
2022-12-08T23:27:39.556Z,95408.50
2022-12-08T23:30:10.306Z,95405.31
2022-12-08T23:32:39.232Z,95410.09
2022-12-08T23:35:09.002Z,95417.50
2022-12-08T23:37:38.785Z,95410.63
2022-12-08T23:40:08.823Z,95398.19
2022-12-08T23:42:37.242Z,95399.22
2022-12-08T23:45:08.460Z,95406.31
2022-12-08T23:47:36.971Z,95410.53
2022-12-08T23:50:06.617Z,95403.03
2022-12-08T23:52:35.212Z,95413.63
2022-12-08T23:55:05.148Z,95417.91
2022-12-08T23:57:33.508Z,95416.00
